AirNav   Everest Fuels
 
 1079 users online  

30MA Clinton Hospital Heliport
Clinton, Massachusetts, USA

GOING TO CLINTON?


FAA INFORMATION EFFECTIVE 22 APRIL 2021

Location

FAA Identifier: 30MA
Lat/Long: 42-25-40.6200N 071-41-34.0800W
42-25.677000N 071-41.568000W
42.4279500,-71.6928000
(estimated)
Elevation: 368 ft. / 112 m (estimated)
Variation: 15W (1995)
From city: 1 mile NW of CLINTON, MA
Time zone: UTC -4 (UTC -5 during Standard Time)
Zip code: 01510

Heliport Operations

Heliport use: Private use, MEDICAL USE.
Activation date: 08/1998
Control tower: no
ARTCC: BOSTON CENTER
FSS: BRIDGEPORT FLIGHT SERVICE STATION
Attendance: UNATNDD
Wind indicator: yes
Segmented circle: no
Lights: FOR PERIMETER LGTS CALL 978-368-3735.

Heliport Communications

WX ASOS at FIT (8 nm N): 135.175 (978-343-9121)
WX ASOS at ORH (13 nm SW): PHONE 508-795-7546
WX ASOS at BED (18 nm E): 124.6 (781-274-9733)

Nearby radio navigation aids

VOR radial/distance  VOR name  Freq  Var
GDMr128/17.6GARDNER VOR/DME110.6014W
PUTr027/29.1PUTNAM VOR/DME117.4014W
MHTr223/30.0MANCHESTER VOR/DME114.4015W
BOSr294/31.4BOSTON VOR/DME112.7016W
LWMr250/32.4LAWRENCE VOR/DME112.5015W
EENr144/34.4KEENE VORTAC109.4014W

Heliport Services

Runway Information

Helipad H1

Dimensions: 45 x 45 ft. / 14 x 14 m
Surface: asphalt
Runway edge lights: PERI
Latitude: 42-25.666667N
Longitude: 071-41.568000W
Traffic pattern: leftleft

Heliport Ownership and Management from official FAA records

Ownership: Privately-owned
Owner: UMASS MEMORIAL HEALTHALLIANCE
201 HIGHLAND STREET
CLINTON, MA 01510
Phone 978-368-3000
UMASS MEMORIAL HEALTHALLIANCE-CLINTON HOSPITAL.
Manager: DAVE BILOTTA
60 HOSPITAL RD
LEOMINSTER, MA 01453
Phone 978-466-2015
CELL: 508-688-5125

Heliport Operational Statistics

Aircraft based on the field: 3
Helicopters: 3
    

Additional Remarks

FOR CD CTC BOSTON APCH AT 603-594-5551.

Instrument Procedures

There are no published instrument procedures at 30MA.

Some nearby airports with instrument procedures:

6B6 - Minute Man Air Field (8 nm E)
KFIT - Fitchburg Municipal Airport (8 nm N)
KORH - Worcester Regional Airport (13 nm SW)
KGDM - Gardner Municipal Airport (16 nm NW)
KBED - Laurence G Hanscom Field Airport (18 nm E)
 
Loc | Ops | Rwys | IFR | FBO | Links
Com | Nav | Svcs | Stats | Notes
Area around 30MA (Clinton Hospital Heliport)
 
Road maps at: MapQuest Bing Google
 
Aerial photo
No photo
 
Sectional chart

 
Airport distance calculator
Flying to Clinton Hospital Heliport? Find the distance to fly.

From to 30MA

Sunrise and sunset
Times for 16-May-2021
 Local
(UTC-4)
 Zulu
(UTC)
Morning civil twilight04:5308:53
Sunrise05:2509:25
Sunset20:0100:01
Evening civil twilight20:3400:34

Current date and time
Zulu (UTC)  16-May-2021 23:53:15
Local (UTC-4)  16-May-2021 19:53:15
 
METAR
KFIT 
8nm N 
162252Z AUTO 16006KT 10SM OVC095 18/08 A3020 RMK AO2 RAB15E29 SLP225 P0000 T01780083
KORH 
12nm SW 
162254Z 31006KT 10SM FEW060 BKN095 OVC110 19/04 A3022 RMK AO2 SLP233 T01890039
KBED 
18nm E 
162251Z 23007G16KT 10SM CLR 18/06 A3019 RMK AO2 RAB04E27 SLP236 P0000 T01830061
TAF
KORH 
12nm SW 
162108Z 1621/1718 25012G22KT P6SM VCSH FEW070 BKN100 FM162300 24008KT P6SM BKN090 FM170200 26006KT P6SM SCT080 FM171700 25004KT P6SM VCSH SCT150
KBED 
18nm E 
162108Z 1621/1718 13012KT P6SM VCSH SKC FM162300 25006KT P6SM BKN080 FM170500 24003KT P6SM SCT070 FM171700 01003KT P6SM VCSH SCT250
NOTAMs
Click for the latest NOTAMs
NOTAMs are issued by the DoD/FAA and will open in a separate window not controlled by AirNav.

 

 
 

Would you like to see your business listed on this page?

 If your business provides an interesting product or service to pilots, flight crews, aircraft, or users of the Clinton Hospital Heliport, you should consider listing it here.  To start the listing process, click on the button below
 
Add a business
 

Other Pages about Clinton Hospital Heliport

Update a link
 
Copyright © AirNav, LLC. All rights reserved. Privacy Policy  Contact